createdAt,value
2017-09-06T00:00:00.726Z,1.53
2017-09-06T00:02:28.183Z,2.07
2017-09-06T00:04:55.636Z,1.73
2017-09-06T00:07:23.119Z,1.33
2017-09-06T00:09:50.701Z,1.67
2017-09-06T00:12:18.228Z,2.03
2017-09-06T00:14:45.718Z,1.47
2017-09-06T00:17:13.246Z,1.50
2017-09-06T00:19:40.818Z,1.90
2017-09-06T00:24:44.652Z,1.13
2017-09-06T00:27:12.203Z,1.70
2017-09-06T00:29:39.764Z,1.57
2017-09-06T00:32:07.333Z,1.60
2017-09-06T00:34:34.816Z,1.10
2017-09-06T00:37:02.288Z,1.43
2017-09-06T00:39:29.765Z,1.30
2017-09-06T00:41:57.252Z,0.90
2017-09-06T00:44:24.881Z,1.40
2017-09-06T00:46:52.374Z,1.37
2017-09-06T00:49:19.861Z,1.27
2017-09-06T00:51:47.393Z,1.77
2017-09-06T00:54:14.891Z,1.20
2017-09-06T00:56:42.398Z,1.67
2017-09-06T00:59:09.872Z,1.30
2017-09-06T01:01:37.344Z,1.70
2017-09-06T01:04:04.825Z,1.23
2017-09-06T01:06:32.275Z,0.80
2017-09-06T01:08:59.789Z,1.10
2017-09-06T01:11:27.349Z,1.00
2017-09-06T01:13:54.850Z,0.93
2017-09-06T01:16:22.357Z,1.20
2017-09-06T01:18:49.817Z,1.30
2017-09-06T01:21:17.408Z,0.97
2017-09-06T01:23:46.586Z,1.07
2017-09-06T01:26:14.136Z,1.07
2017-09-06T01:28:41.687Z,1.00
2017-09-06T01:31:09.195Z,1.10
2017-09-06T01:33:36.662Z,1.17
2017-09-06T01:36:04.456Z,1.00
2017-09-06T01:38:31.974Z,1.53
2017-09-06T01:40:59.448Z,1.00
2017-09-06T01:43:26.947Z,1.03
2017-09-06T01:45:54.458Z,1.10
2017-09-06T01:48:22.411Z,1.03
2017-09-06T01:50:49.909Z,0.93
2017-09-06T01:53:17.365Z,0.87
2017-09-06T01:55:44.845Z,1.03
2017-09-06T01:58:12.417Z,1.33
2017-09-06T02:00:39.887Z,0.70
2017-09-06T02:03:07.400Z,0.80
2017-09-06T02:05:34.878Z,1.10
2017-09-06T02:08:02.342Z,1.20
2017-09-06T02:10:29.832Z,1.00
2017-09-06T02:12:57.341Z,1.23
2017-09-06T02:15:24.810Z,1.10
2017-09-06T02:17:52.493Z,0.93
2017-09-06T02:20:20.025Z,1.03
2017-09-06T02:22:47.505Z,1.00
2017-09-06T02:25:15.035Z,1.53
2017-09-06T02:27:42.522Z,0.93
2017-09-06T02:30:10.465Z,0.90
2017-09-06T02:32:37.958Z,1.00
2017-09-06T02:35:05.437Z,2.00
2017-09-06T02:37:32.937Z,1.20
2017-09-06T02:40:00.388Z,1.33
2017-09-06T02:42:27.872Z,1.37
2017-09-06T02:44:55.322Z,0.93
2017-09-06T02:47:22.877Z,0.97
2017-09-06T02:49:50.424Z,1.53
2017-09-06T02:52:17.909Z,1.10
2017-09-06T02:54:45.436Z,1.13
2017-09-06T02:57:13.010Z,1.00
2017-09-06T02:59:40.547Z,1.20
2017-09-06T03:02:08.015Z,1.00
2017-09-06T03:04:35.470Z,1.23
2017-09-06T03:07:02.949Z,1.27
2017-09-06T03:09:30.409Z,1.10
2017-09-06T03:11:57.945Z,1.37
2017-09-06T03:14:25.401Z,1.20
2017-09-06T03:16:52.944Z,1.50
2017-09-06T03:19:20.418Z,1.30
2017-09-06T03:21:47.972Z,1.00
2017-09-06T03:24:15.495Z,1.23
2017-09-06T03:26:42.979Z,1.17
2017-09-06T03:29:10.504Z,1.40
2017-09-06T03:31:37.965Z,1.67
2017-09-06T03:34:05.966Z,0.87
2017-09-06T03:36:33.433Z,1.70
2017-09-06T03:39:00.935Z,1.30
2017-09-06T03:41:28.446Z,0.97
2017-09-06T03:43:55.997Z,1.13
2017-09-06T03:46:23.449Z,1.10
2017-09-06T03:48:51.005Z,1.40
2017-09-06T03:51:18.565Z,1.23
2017-09-06T03:53:46.041Z,1.50
2017-09-06T03:56:13.496Z,1.17
2017-09-06T03:58:41.089Z,1.37
2017-09-06T04:01:08.635Z,1.43
2017-09-06T04:03:36.161Z,1.10
2017-09-06T04:06:03.727Z,1.17
2017-09-06T04:08:31.202Z,1.37
2017-09-06T04:10:58.733Z,1.30
2017-09-06T04:13:26.213Z,1.27
2017-09-06T04:15:53.697Z,1.33
2017-09-06T04:18:21.185Z,0.90
2017-09-06T04:20:48.646Z,1.27
2017-09-06T04:23:16.115Z,1.33
2017-09-06T04:25:43.598Z,1.07
2017-09-06T04:28:11.054Z,1.20
2017-09-06T04:30:38.584Z,1.00
2017-09-06T04:33:06.087Z,1.20
2017-09-06T04:35:33.565Z,1.30
2017-09-06T04:38:01.064Z,0.90
2017-09-06T04:40:28.623Z,1.53
2017-09-06T04:42:56.077Z,0.90
2017-09-06T04:45:23.631Z,0.87
2017-09-06T04:47:51.089Z,1.10
2017-09-06T04:50:18.561Z,0.90
2017-09-06T04:52:46.051Z,1.10
2017-09-06T04:55:13.564Z,1.17
2017-09-06T04:57:41.117Z,1.00
2017-09-06T05:00:08.598Z,1.50
2017-09-06T05:02:36.137Z,1.20
2017-09-06T05:05:03.635Z,1.03
2017-09-06T05:07:31.147Z,1.50
2017-09-06T05:09:58.709Z,1.30
2017-09-06T05:12:26.433Z,1.63
2017-09-06T05:14:53.941Z,2.23
2017-09-06T05:17:21.476Z,1.60
2017-09-06T05:19:48.951Z,1.93
2017-09-06T05:22:16.522Z,2.27
2017-09-06T05:24:44.021Z,2.10
2017-09-06T05:27:11.476Z,1.93
2017-09-06T05:29:38.925Z,2.07
2017-09-06T05:32:06.434Z,1.60
2017-09-06T05:34:33.910Z,1.53
2017-09-06T05:37:01.390Z,1.07
2017-09-06T05:39:28.904Z,1.20
2017-09-06T05:41:56.386Z,1.20
2017-09-06T05:44:23.928Z,1.83
2017-09-06T05:46:51.482Z,2.57
2017-09-06T05:49:19.045Z,2.03
2017-09-06T05:51:46.601Z,0.90
2017-09-06T05:54:14.056Z,1.43
2017-09-06T05:56:41.532Z,1.23
2017-09-06T05:59:09.102Z,1.07
2017-09-06T06:01:36.599Z,1.13
2017-09-06T06:04:04.085Z,1.20
2017-09-06T06:06:31.552Z,1.27
2017-09-06T06:08:59.104Z,0.90
2017-09-06T06:11:26.602Z,0.90
2017-09-06T06:13:54.060Z,1.20
2017-09-06T06:16:21.577Z,0.87
2017-09-06T06:18:49.057Z,0.70
2017-09-06T06:21:16.554Z,0.97
2017-09-06T06:23:44.034Z,0.83
2017-09-06T06:26:11.517Z,1.00
2017-09-06T06:28:39.025Z,0.67
2017-09-06T06:31:06.540Z,0.50
2017-09-06T06:33:34.033Z,0.70
2017-09-06T06:36:01.529Z,0.80
2017-09-06T06:38:28.999Z,0.50
2017-09-06T06:40:56.549Z,0.50
2017-09-06T06:43:24.109Z,0.40
2017-09-06T06:45:51.593Z,0.40
2017-09-06T06:48:19.120Z,0.53
2017-09-06T06:50:46.582Z,0.60
2017-09-06T06:53:14.194Z,0.60
2017-09-06T06:55:41.693Z,0.50
2017-09-06T06:58:09.179Z,0.40
2017-09-06T07:00:36.695Z,0.53
2017-09-06T07:03:04.305Z,0.50
2017-09-06T07:05:31.813Z,0.63
2017-09-06T07:07:59.290Z,0.60
2017-09-06T07:10:26.838Z,0.70
2017-09-06T07:12:54.320Z,0.50
2017-09-06T07:15:21.788Z,0.60
2017-09-06T07:17:52.191Z,0.70
2017-09-06T07:20:19.749Z,0.70
2017-09-06T07:22:47.297Z,0.80
2017-09-06T07:25:14.767Z,0.73
2017-09-06T07:27:42.233Z,0.87
2017-09-06T07:30:09.774Z,0.73
2017-09-06T07:32:37.492Z,0.40
2017-09-06T07:35:04.989Z,0.60
2017-09-06T07:37:32.443Z,0.60
2017-09-06T07:39:59.922Z,0.60
2017-09-06T07:42:27.470Z,0.70
2017-09-06T07:44:54.950Z,0.77
2017-09-06T07:47:22.492Z,0.70
2017-09-06T07:49:49.978Z,0.80
2017-09-06T07:52:17.440Z,0.50
2017-09-06T07:54:44.976Z,0.70
2017-09-06T07:57:12.583Z,0.67
2017-09-06T07:59:40.123Z,0.70
2017-09-06T08:02:07.610Z,0.70
2017-09-06T08:04:35.233Z,0.87
2017-09-06T08:07:06.584Z,0.67
2017-09-06T08:09:34.140Z,0.93
2017-09-06T08:12:01.649Z,0.70
2017-09-06T08:14:29.156Z,0.80
2017-09-06T08:16:56.623Z,0.70
2017-09-06T08:19:24.112Z,0.70
2017-09-06T08:21:51.911Z,0.90
2017-09-06T08:24:19.492Z,0.97
2017-09-06T08:26:46.973Z,0.90
2017-09-06T08:29:14.433Z,0.87
2017-09-06T08:31:42.007Z,0.90
2017-09-06T08:34:09.468Z,0.67
2017-09-06T08:36:36.938Z,0.67
2017-09-06T08:39:04.392Z,0.50
2017-09-06T08:41:31.877Z,0.50
2017-09-06T08:43:59.396Z,0.73
2017-09-06T08:46:26.875Z,1.20
2017-09-06T08:48:54.468Z,0.93
2017-09-06T08:51:21.974Z,0.50
2017-09-06T08:53:49.435Z,0.57
2017-09-06T08:56:17.001Z,0.80
2017-09-06T08:58:44.512Z,0.60
2017-09-06T09:01:12.021Z,0.60
2017-09-06T09:03:39.489Z,0.80
2017-09-06T09:06:07.026Z,0.60
2017-09-06T09:08:34.496Z,0.70
2017-09-06T09:11:02.032Z,0.60
2017-09-06T09:13:29.504Z,1.07
2017-09-06T09:15:57.017Z,0.67
2017-09-06T09:18:24.513Z,0.80
2017-09-06T09:20:52.069Z,0.83
2017-09-06T09:23:19.641Z,0.60
2017-09-06T09:25:47.109Z,0.67
2017-09-06T09:28:14.640Z,0.70
2017-09-06T09:30:42.225Z,0.60
2017-09-06T09:33:09.765Z,0.60
2017-09-06T09:35:37.225Z,0.60
2017-09-06T09:38:04.779Z,0.70
2017-09-06T09:40:32.236Z,0.60
2017-09-06T09:42:59.729Z,0.60
2017-09-06T09:45:27.202Z,0.57
2017-09-06T09:47:54.698Z,0.80
2017-09-06T09:50:22.207Z,1.00
2017-09-06T09:52:49.724Z,0.70
2017-09-06T09:55:17.179Z,0.50
2017-09-06T09:57:44.732Z,0.93
2017-09-06T10:00:12.192Z,0.80
2017-09-06T10:02:40.195Z,0.70
2017-09-06T10:05:07.997Z,0.70
2017-09-06T10:07:35.484Z,0.60
2017-09-06T10:10:02.946Z,1.30
2017-09-06T10:12:30.440Z,0.83
2017-09-06T10:14:57.905Z,1.10
2017-09-06T10:17:25.387Z,0.73
2017-09-06T10:19:52.848Z,0.80
2017-09-06T10:22:20.670Z,0.63
2017-09-06T10:24:48.161Z,0.97
2017-09-06T10:27:15.621Z,1.10
2017-09-06T10:29:43.117Z,1.40
2017-09-06T10:32:10.589Z,1.03
2017-09-06T10:34:38.125Z,1.23
2017-09-06T10:37:05.581Z,0.70
2017-09-06T10:39:33.057Z,1.20
2017-09-06T10:42:00.509Z,1.30
2017-09-06T10:44:28.059Z,0.77
2017-09-06T10:46:55.532Z,1.30
2017-09-06T10:49:23.061Z,0.90
2017-09-06T10:51:50.513Z,0.90
2017-09-06T10:54:18.009Z,1.03
2017-09-06T10:56:45.576Z,0.97
2017-09-06T10:59:13.049Z,0.80
2017-09-06T11:01:40.553Z,0.90
2017-09-06T11:04:08.048Z,0.90
2017-09-06T11:06:35.569Z,1.50
2017-09-06T11:09:03.070Z,0.87
2017-09-06T11:11:30.557Z,1.60
2017-09-06T11:13:58.137Z,1.53
2017-09-06T11:16:25.638Z,1.20
2017-09-06T11:18:53.120Z,1.53
2017-09-06T11:21:20.581Z,1.03
2017-09-06T11:23:48.040Z,0.87
2017-09-06T11:26:15.521Z,1.20
2017-09-06T11:28:43.081Z,1.23
2017-09-06T11:31:10.588Z,1.17
2017-09-06T11:33:38.113Z,1.30
2017-09-06T11:36:05.661Z,1.60
2017-09-06T11:38:33.168Z,1.20
2017-09-06T11:41:00.669Z,1.30
2017-09-06T11:43:28.222Z,2.00
2017-09-06T11:45:55.788Z,1.30
2017-09-06T11:48:23.288Z,1.10
2017-09-06T11:50:50.787Z,1.73
2017-09-06T11:53:19.689Z,0.97
2017-09-06T11:55:47.178Z,1.50
2017-09-06T11:58:14.637Z,1.10
2017-09-06T12:00:42.121Z,1.07
2017-09-06T12:03:09.614Z,0.90
2017-09-06T12:05:37.110Z,1.40
2017-09-06T12:08:04.795Z,1.30
2017-09-06T12:10:32.317Z,0.97
2017-09-06T12:12:59.777Z,1.10
2017-09-06T12:15:27.270Z,0.90
2017-09-06T12:17:54.749Z,1.27
2017-09-06T12:20:22.337Z,0.90
2017-09-06T12:22:49.788Z,2.10
2017-09-06T12:25:18.049Z,1.20
2017-09-06T12:27:45.622Z,1.37
2017-09-06T12:30:13.176Z,1.90
2017-09-06T12:32:40.633Z,1.30
2017-09-06T12:35:08.120Z,1.50
2017-09-06T12:37:36.104Z,1.97
2017-09-06T12:40:03.625Z,1.80
2017-09-06T12:42:31.079Z,1.43
2017-09-06T12:44:58.648Z,1.83
2017-09-06T12:47:26.188Z,1.30
2017-09-06T12:49:53.649Z,1.20
2017-09-06T12:52:21.202Z,1.90
2017-09-06T12:54:48.765Z,1.50
2017-09-06T12:57:16.235Z,1.87
2017-09-06T12:59:43.688Z,1.77
2017-09-06T13:02:11.241Z,1.37
2017-09-06T13:04:38.719Z,1.43
2017-09-06T13:07:06.226Z,2.30
2017-09-06T13:09:33.709Z,1.97
2017-09-06T13:12:01.221Z,1.30
2017-09-06T13:14:28.691Z,1.80
2017-09-06T13:16:56.301Z,1.53
2017-09-06T13:19:23.768Z,2.07
2017-09-06T13:21:51.257Z,2.00
2017-09-06T13:24:18.758Z,1.53
2017-09-06T13:26:46.337Z,1.80
2017-09-06T13:29:13.804Z,1.70
2017-09-06T13:31:41.344Z,1.87
2017-09-06T13:34:08.801Z,1.63
2017-09-06T13:36:36.286Z,2.20
2017-09-06T13:39:03.776Z,2.53
2017-09-06T13:41:31.261Z,1.53
2017-09-06T13:43:58.759Z,1.73
2017-09-06T13:46:26.327Z,2.00
2017-09-06T13:48:53.799Z,2.00
2017-09-06T13:51:21.293Z,1.50
2017-09-06T13:53:48.765Z,1.60
2017-09-06T13:56:16.238Z,1.67
2017-09-06T13:58:43.737Z,1.83
2017-09-06T14:01:11.220Z,1.50
2017-09-06T14:03:38.729Z,1.73
2017-09-06T14:06:06.184Z,1.33
2017-09-06T14:08:33.683Z,1.13
2017-09-06T14:11:01.250Z,1.63
2017-09-06T14:13:28.811Z,1.17
2017-09-06T14:15:56.585Z,1.70
2017-09-06T14:18:24.141Z,2.20
2017-09-06T14:20:51.616Z,1.30
2017-09-06T14:23:20.663Z,1.57
2017-09-06T14:25:49.386Z,1.87
2017-09-06T14:28:18.622Z,2.53
2017-09-06T14:30:47.266Z,1.50
2017-09-06T14:33:16.089Z,1.63
2017-09-06T14:35:44.953Z,1.93
2017-09-06T14:38:13.827Z,1.53
2017-09-06T14:40:41.350Z,1.40
2017-09-06T14:43:08.829Z,2.10
2017-09-06T14:45:36.346Z,1.33
2017-09-06T14:48:04.199Z,1.33
2017-09-06T14:50:32.167Z,1.53
2017-09-06T14:52:59.738Z,1.53
2017-09-06T14:55:27.253Z,2.00
2017-09-06T14:57:55.947Z,2.03
2017-09-06T15:00:23.535Z,1.30
2017-09-06T15:02:51.057Z,1.33
2017-09-06T15:05:18.556Z,1.70
2017-09-06T15:07:46.062Z,1.63
2017-09-06T15:10:13.592Z,1.47
2017-09-06T15:12:41.133Z,1.43
2017-09-06T15:15:08.593Z,1.90
2017-09-06T15:17:36.098Z,1.47
2017-09-06T15:20:03.563Z,1.50
2017-09-06T15:22:31.105Z,1.30
2017-09-06T15:24:58.575Z,1.73
2017-09-06T15:27:26.079Z,1.27
2017-09-06T15:29:53.589Z,1.77
2017-09-06T15:32:21.160Z,1.50
2017-09-06T15:34:48.665Z,1.37
2017-09-06T15:37:16.145Z,1.17
2017-09-06T15:39:43.728Z,1.70
2017-09-06T15:42:11.189Z,1.30
2017-09-06T15:44:38.668Z,1.13
2017-09-06T15:47:06.125Z,1.80
2017-09-06T15:49:33.617Z,1.40
2017-09-06T15:52:01.070Z,1.87
2017-09-06T15:54:28.544Z,1.60
2017-09-06T15:56:56.103Z,1.53
2017-09-06T15:59:23.609Z,1.23
2017-09-06T16:01:51.064Z,1.50
2017-09-06T16:04:18.593Z,1.37
2017-09-06T16:06:46.064Z,2.57
2017-09-06T16:09:13.552Z,1.60
2017-09-06T16:11:41.062Z,1.90
2017-09-06T16:14:08.606Z,1.40
2017-09-06T16:16:36.160Z,1.77
2017-09-06T16:19:03.735Z,1.67
2017-09-06T16:21:31.186Z,1.70
2017-09-06T16:23:58.748Z,1.87
2017-09-06T16:26:26.209Z,1.87
2017-09-06T16:28:53.756Z,2.00
2017-09-06T16:31:21.216Z,1.87
2017-09-06T16:33:49.479Z,1.40
2017-09-06T16:36:16.940Z,1.80
2017-09-06T16:38:44.418Z,2.00
2017-09-06T16:41:11.961Z,1.80
2017-09-06T16:43:39.477Z,1.80
2017-09-06T16:46:06.953Z,1.97
2017-09-06T16:48:34.534Z,1.90
2017-09-06T16:51:01.998Z,1.70
2017-09-06T16:53:29.457Z,1.67
2017-09-06T16:55:57.007Z,1.23
2017-09-06T16:58:24.472Z,1.60
2017-09-06T17:00:52.023Z,1.23
2017-09-06T17:03:19.513Z,2.10
2017-09-06T17:05:46.992Z,1.17
2017-09-06T17:08:14.448Z,1.30
2017-09-06T17:10:41.928Z,1.80
2017-09-06T17:13:09.385Z,1.30
2017-09-06T17:15:36.873Z,1.90
2017-09-06T17:18:04.331Z,1.87
2017-09-06T17:20:31.821Z,1.63
2017-09-06T17:22:59.330Z,1.73
2017-09-06T17:25:26.852Z,2.70
2017-09-06T17:27:54.320Z,1.83
2017-09-06T17:30:21.908Z,1.40
2017-09-06T17:32:50.425Z,1.73
2017-09-06T17:35:18.053Z,1.27
2017-09-06T17:37:45.609Z,1.30
2017-09-06T17:40:13.141Z,2.53
2017-09-06T17:42:40.628Z,1.53
2017-09-06T17:45:08.181Z,1.53
2017-09-06T17:47:35.675Z,2.40
2017-09-06T17:50:03.158Z,2.33
2017-09-06T17:52:30.660Z,1.97
2017-09-06T17:54:58.141Z,1.60
2017-09-06T17:57:25.678Z,2.00
2017-09-06T17:59:53.206Z,1.80
2017-09-06T18:02:20.732Z,1.93
2017-09-06T18:04:48.239Z,2.20
2017-09-06T18:07:15.801Z,2.13
2017-09-06T18:09:43.283Z,2.00
2017-09-06T18:12:10.817Z,2.17
2017-09-06T18:14:38.269Z,1.60
2017-09-06T18:17:05.749Z,2.00
2017-09-06T18:19:33.225Z,1.93
2017-09-06T18:22:00.765Z,2.30
2017-09-06T18:24:28.256Z,3.60
2017-09-06T18:26:55.746Z,2.90
2017-09-06T18:29:23.213Z,3.67
2017-09-06T18:31:50.687Z,1.60
2017-09-06T18:34:18.169Z,2.87
2017-09-06T18:36:45.645Z,1.83
2017-09-06T18:39:13.143Z,3.07
2017-09-06T18:41:40.623Z,2.10
2017-09-06T18:44:08.242Z,2.30
2017-09-06T18:46:35.753Z,2.13
2017-09-06T18:49:03.212Z,1.90
2017-09-06T18:51:30.761Z,2.00
2017-09-06T18:53:58.296Z,2.27
2017-09-06T18:56:25.922Z,1.77
2017-09-06T18:58:53.381Z,1.87
2017-09-06T19:01:20.849Z,2.00
2017-09-06T19:03:48.370Z,2.13
2017-09-06T19:06:15.900Z,2.57
2017-09-06T19:08:43.490Z,2.60
2017-09-06T19:11:10.988Z,1.97
2017-09-06T19:13:38.555Z,2.03
2017-09-06T19:16:06.018Z,1.93
2017-09-06T19:18:33.497Z,2.10
2017-09-06T19:21:01.033Z,1.50
2017-09-06T19:23:28.569Z,2.40
2017-09-06T19:25:56.066Z,3.37
2017-09-06T19:28:23.561Z,1.47
2017-09-06T19:30:51.008Z,2.00
2017-09-06T19:33:18.469Z,1.77
2017-09-06T19:35:45.949Z,1.50
2017-09-06T19:38:13.433Z,2.07
2017-09-06T19:40:40.993Z,1.57
2017-09-06T19:43:08.517Z,3.00
2017-09-06T19:45:36.038Z,1.70
2017-09-06T19:48:03.501Z,2.27
2017-09-06T19:50:31.020Z,1.63
2017-09-06T19:52:58.472Z,1.93
2017-09-06T19:55:26.033Z,2.73
2017-09-06T19:57:53.601Z,2.20
2017-09-06T20:00:21.173Z,2.37
2017-09-06T20:02:48.625Z,1.90
2017-09-06T20:05:16.100Z,2.40
2017-09-06T20:07:43.633Z,2.63
2017-09-06T20:10:11.189Z,3.20
2017-09-06T20:12:38.742Z,1.80
2017-09-06T20:15:06.214Z,2.47
2017-09-06T20:17:33.699Z,3.20
2017-09-06T20:20:01.248Z,2.33
2017-09-06T20:22:28.781Z,2.20
2017-09-06T20:24:56.493Z,2.87
2017-09-06T20:27:23.995Z,2.50
2017-09-06T20:29:51.557Z,3.57
2017-09-06T20:32:19.058Z,2.93
2017-09-06T20:34:46.536Z,2.80
2017-09-06T20:37:14.007Z,1.80
2017-09-06T20:39:41.478Z,3.43
2017-09-06T20:42:08.959Z,2.53
2017-09-06T20:44:36.546Z,3.00
2017-09-06T20:47:04.038Z,2.40
2017-09-06T20:49:31.902Z,2.53
2017-09-06T20:51:59.400Z,2.90
2017-09-06T20:54:26.847Z,3.10
2017-09-06T20:56:54.393Z,2.27
2017-09-06T20:59:21.857Z,3.60
2017-09-06T21:01:49.433Z,1.60
2017-09-06T21:04:17.014Z,3.63
2017-09-06T21:06:44.537Z,2.10
2017-09-06T21:09:12.091Z,2.17
2017-09-06T21:11:40.568Z,2.60
2017-09-06T21:14:08.149Z,2.20
2017-09-06T21:16:35.660Z,2.07
2017-09-06T21:19:03.117Z,2.47
2017-09-06T21:21:30.721Z,2.57
2017-09-06T21:23:58.173Z,1.50
2017-09-06T21:26:25.905Z,2.40
2017-09-06T21:28:53.476Z,3.27
2017-09-06T21:31:20.968Z,2.40
2017-09-06T21:33:48.420Z,2.57
2017-09-06T21:36:15.966Z,2.47
2017-09-06T21:38:43.457Z,2.40
2017-09-06T21:41:10.916Z,2.27
2017-09-06T21:43:38.421Z,2.40
2017-09-06T21:46:05.885Z,2.40
2017-09-06T21:48:33.431Z,2.17
2017-09-06T21:51:00.900Z,2.30
2017-09-06T21:53:28.462Z,1.93
2017-09-06T21:55:55.953Z,2.47
2017-09-06T21:58:23.497Z,1.73
2017-09-06T22:00:50.960Z,3.37
2017-09-06T22:03:18.471Z,2.60
2017-09-06T22:05:45.962Z,3.07
2017-09-06T22:08:13.501Z,2.27
2017-09-06T22:10:41.165Z,2.70
2017-09-06T22:13:45.889Z,2.10
2017-09-06T22:16:13.352Z,3.00
2017-09-06T22:18:40.841Z,2.90
2017-09-06T22:21:08.298Z,2.80
2017-09-06T22:23:35.838Z,2.50
2017-09-06T22:26:03.524Z,2.97
2017-09-06T22:28:31.020Z,3.10
2017-09-06T22:30:58.518Z,2.67
2017-09-06T22:33:26.075Z,2.83
2017-09-06T22:35:53.553Z,2.90
2017-09-06T22:38:21.035Z,2.90
2017-09-06T22:40:48.524Z,3.23
2017-09-06T22:43:16.108Z,2.43
2017-09-06T22:45:43.664Z,3.77
2017-09-06T22:48:11.124Z,3.27
2017-09-06T22:50:38.613Z,2.67
2017-09-06T22:53:06.113Z,3.20
2017-09-06T22:55:33.607Z,2.73
2017-09-06T22:58:01.323Z,2.70
2017-09-06T23:00:31.699Z,3.90
2017-09-06T23:02:59.224Z,3.20
2017-09-06T23:05:26.781Z,2.70
2017-09-06T23:07:54.250Z,3.33
2017-09-06T23:10:21.753Z,3.40
2017-09-06T23:12:49.244Z,3.00
2017-09-06T23:15:16.752Z,4.30
2017-09-06T23:17:44.257Z,2.90
2017-09-06T23:20:11.740Z,3.30
2017-09-06T23:22:39.201Z,3.30
2017-09-06T23:25:06.686Z,3.50
2017-09-06T23:27:34.206Z,3.00
2017-09-06T23:30:01.799Z,3.30
2017-09-06T23:32:29.269Z,2.33
2017-09-06T23:34:56.765Z,2.87
2017-09-06T23:37:24.220Z,3.17
2017-09-06T23:39:51.785Z,2.67
2017-09-06T23:42:19.361Z,3.03
2017-09-06T23:44:46.904Z,2.63
2017-09-06T23:47:14.380Z,3.17
2017-09-06T23:49:41.912Z,2.73
2017-09-06T23:52:09.394Z,2.83
2017-09-06T23:54:36.849Z,3.40
2017-09-06T23:57:04.328Z,2.70
2017-09-06T23:59:31.858Z,2.60
